createdAt,value
2022-11-07T00:01:36.120Z,61.15
2022-11-07T00:04:03.166Z,63.10
2022-11-07T00:06:30.158Z,60.38
2022-11-07T00:08:58.784Z,62.00
2022-11-07T00:11:25.758Z,62.25
2022-11-07T00:13:52.699Z,65.30
2022-11-07T00:16:19.665Z,63.47
2022-11-07T00:18:47.982Z,62.42
2022-11-07T00:21:15.014Z,66.18
2022-11-07T00:23:42.129Z,63.03
2022-11-07T00:26:11.034Z,61.35
2022-11-07T00:28:39.342Z,64.18
2022-11-07T00:31:06.920Z,60.78
2022-11-07T00:33:34.024Z,61.30
2022-11-07T00:36:01.137Z,60.28
2022-11-07T00:38:28.093Z,59.25
2022-11-07T00:40:59.624Z,58.42
2022-11-07T00:43:26.757Z,57.33
2022-11-07T00:45:53.893Z,59.00
2022-11-07T00:48:20.950Z,58.67
2022-11-07T00:50:47.876Z,56.90
2022-11-07T00:53:15.150Z,58.85
2022-11-07T00:55:42.359Z,57.95
2022-11-07T00:58:13.951Z,59.03
2022-11-07T01:00:41.752Z,57.80
2022-11-07T01:03:27.237Z,59.20
2022-11-07T01:06:01.805Z,62.05
2022-11-07T01:08:29.318Z,61.85
2022-11-07T01:10:57.870Z,61.25
2022-11-07T01:13:24.934Z,58.70
2022-11-07T01:15:52.083Z,59.08
2022-11-07T01:18:19.096Z,60.17
2022-11-07T01:20:46.721Z,54.70
2022-11-07T01:23:14.154Z,56.15
2022-11-07T01:25:41.588Z,57.03
2022-11-07T01:28:08.889Z,55.33
2022-11-07T01:30:42.206Z,56.47
2022-11-07T01:33:09.708Z,53.47
2022-11-07T01:35:36.987Z,53.83
2022-11-07T01:38:04.155Z,54.33
2022-11-07T01:40:31.286Z,54.22
2022-11-07T01:42:58.275Z,54.05
2022-11-07T01:45:27.494Z,51.58
2022-11-07T01:47:55.750Z,52.33
2022-11-07T01:50:24.778Z,53.58
2022-11-07T01:52:52.007Z,54.30
2022-11-07T01:55:34.056Z,55.85
2022-11-07T01:58:06.031Z,56.05
2022-11-07T02:00:35.688Z,56.00
2022-11-07T02:03:07.990Z,57.42
2022-11-07T02:05:38.519Z,57.78
2022-11-07T02:08:06.583Z,55.58
2022-11-07T02:10:38.138Z,59.33
2022-11-07T02:13:05.159Z,58.22
2022-11-07T02:15:33.574Z,57.75
2022-11-07T02:18:00.765Z,59.95
2022-11-07T02:20:27.842Z,59.20
2022-11-07T02:23:04.387Z,58.42
2022-11-07T02:25:31.805Z,57.05
2022-11-07T02:28:00.158Z,59.33
2022-11-07T02:30:32.322Z,61.72
2022-11-07T02:32:59.425Z,62.35
2022-11-07T02:35:45.165Z,56.67
2022-11-07T02:38:24.040Z,58.78
2022-11-07T02:41:15.474Z,57.92
2022-11-07T02:43:48.794Z,58.13
2022-11-07T02:46:15.808Z,57.17
2022-11-07T02:48:54.535Z,56.15
2022-11-07T02:51:21.536Z,58.42
2022-11-07T02:53:48.503Z,55.83
2022-11-07T02:56:15.574Z,53.22
2022-11-07T02:58:42.658Z,57.10
2022-11-07T03:01:09.639Z,54.38
2022-11-07T03:03:39.124Z,57.90
2022-11-07T03:06:09.730Z,56.92
2022-11-07T03:08:36.855Z,56.25
2022-11-07T03:11:04.884Z,53.75
2022-11-07T03:13:31.987Z,51.30
2022-11-07T03:15:58.990Z,56.00
2022-11-07T03:18:26.108Z,53.50
2022-11-07T03:20:53.106Z,53.30
2022-11-07T03:23:20.074Z,49.92
2022-11-07T03:25:47.073Z,52.17
2022-11-07T03:28:13.966Z,50.22
2022-11-07T03:30:40.928Z,56.20
2022-11-07T03:33:07.917Z,52.42
2022-11-07T03:35:34.927Z,56.13
2022-11-07T03:38:01.917Z,51.55
2022-11-07T03:40:28.908Z,53.83
2022-11-07T03:42:55.857Z,50.47
2022-11-07T03:45:22.801Z,47.95
2022-11-07T03:47:49.726Z,53.97
2022-11-07T03:50:18.946Z,51.80
2022-11-07T03:52:46.058Z,52.65
2022-11-07T03:55:16.052Z,52.40
2022-11-07T03:57:43.107Z,53.55
2022-11-07T04:00:10.618Z,48.20
2022-11-07T04:02:40.320Z,50.90
2022-11-07T04:05:07.786Z,54.30
2022-11-07T04:07:34.776Z,53.08
2022-11-07T04:10:04.592Z,64.28
2022-11-07T04:12:49.927Z,61.58
2022-11-07T04:15:35.193Z,62.30
2022-11-07T04:18:02.274Z,59.55
2022-11-07T04:20:29.222Z,59.75
2022-11-07T04:22:56.214Z,55.88
2022-11-07T04:25:43.169Z,55.80
2022-11-07T04:28:10.128Z,52.58
2022-11-07T04:30:37.054Z,54.90
2022-11-07T04:33:04.171Z,52.92
2022-11-07T04:35:33.256Z,51.08
2022-11-07T04:38:00.535Z,52.88
2022-11-07T04:40:27.975Z,54.88
2022-11-07T04:42:55.268Z,48.30
2022-11-07T04:45:22.297Z,48.40
2022-11-07T04:47:49.396Z,48.97
2022-11-07T04:50:17.561Z,38.03
2022-11-07T04:52:45.467Z,43.63
2022-11-07T04:55:18.788Z,36.72
2022-11-07T04:57:45.704Z,43.03
2022-11-07T05:00:13.186Z,38.90
2022-11-07T05:02:40.260Z,31.50
2022-11-07T05:05:07.566Z,28.45
2022-11-07T05:07:35.605Z,27.75
2022-11-07T05:10:03.036Z,25.48
2022-11-07T05:12:29.985Z,21.90
2022-11-07T05:14:56.940Z,21.98
2022-11-07T05:17:27.805Z,22.95
2022-11-07T05:19:55.144Z,22.02
2022-11-07T05:22:40.822Z,25.75
2022-11-07T05:25:09.374Z,33.90
2022-11-07T05:27:36.351Z,31.45
2022-11-07T05:30:04.295Z,33.85
2022-11-07T05:32:31.243Z,36.20
2022-11-07T05:34:58.222Z,39.10
2022-11-07T05:37:25.218Z,34.85
2022-11-07T05:39:55.011Z,31.58
2022-11-07T05:42:22.230Z,38.78
2022-11-07T05:44:49.817Z,36.58
2022-11-07T05:47:16.741Z,39.45
2022-11-07T05:49:43.686Z,32.83
2022-11-07T05:52:11.025Z,33.90
2022-11-07T05:54:37.966Z,39.70
2022-11-07T05:57:04.835Z,41.72
2022-11-07T05:59:34.558Z,42.20
2022-11-07T06:02:01.570Z,45.63
2022-11-07T06:04:28.649Z,44.00
2022-11-07T06:06:55.605Z,44.70
2022-11-07T06:09:22.518Z,41.90
2022-11-07T06:11:49.520Z,45.72
2022-11-07T06:14:19.852Z,45.13
2022-11-07T06:16:46.891Z,42.88
2022-11-07T06:19:20.700Z,42.97
2022-11-07T06:21:47.692Z,43.00
2022-11-07T06:24:15.527Z,43.17
2022-11-07T06:26:42.603Z,38.92
2022-11-07T06:29:09.606Z,32.92
2022-11-07T06:31:39.094Z,25.95
2022-11-07T06:34:06.098Z,31.52
2022-11-07T06:36:33.067Z,22.95
2022-11-07T06:38:59.991Z,21.95
2022-11-07T06:41:26.945Z,14.93
2022-11-07T06:43:53.926Z,8.65
2022-11-07T06:46:22.744Z,7.55
2022-11-07T06:48:49.847Z,6.25
2022-11-07T06:51:16.825Z,5.55
2022-11-07T06:53:43.877Z,5.13
2022-11-07T06:56:13.802Z,6.00
2022-11-07T06:58:41.416Z,5.22
2022-11-07T07:01:13.250Z,6.55
2022-11-07T07:03:40.736Z,5.13
2022-11-07T07:06:12.138Z,7.20
2022-11-07T07:08:39.148Z,6.25
2022-11-07T07:11:07.713Z,5.93
2022-11-07T07:13:34.827Z,5.55
2022-11-07T07:16:01.953Z,8.93
2022-11-07T07:18:29.188Z,6.15
2022-11-07T07:21:09.097Z,5.72
2022-11-07T07:23:36.406Z,6.18
2022-11-07T07:26:03.888Z,5.72
2022-11-07T07:28:30.834Z,7.90
2022-11-07T07:31:19.455Z,6.68
2022-11-07T07:33:46.996Z,6.45
2022-11-07T07:36:17.943Z,6.35
2022-11-07T07:38:47.896Z,5.20
2022-11-07T07:41:14.819Z,4.72
2022-11-07T07:43:42.314Z,5.78
2022-11-07T07:46:10.933Z,5.10
2022-11-07T07:48:37.935Z,9.73
2022-11-07T07:51:05.008Z,6.50
2022-11-07T07:53:32.229Z,7.93
2022-11-07T07:56:00.230Z,5.60
2022-11-07T07:58:27.352Z,7.07
2022-11-07T08:00:55.005Z,7.55
2022-11-07T08:03:22.028Z,6.18
2022-11-07T08:05:56.687Z,7.05
2022-11-07T08:08:24.033Z,6.30
2022-11-07T08:10:54.431Z,6.35
2022-11-07T08:13:25.230Z,5.13
2022-11-07T08:15:52.759Z,5.13
2022-11-07T08:18:21.855Z,5.93
2022-11-07T08:20:53.238Z,4.75
2022-11-07T08:23:20.584Z,5.43
2022-11-07T08:25:55.463Z,5.80
2022-11-07T08:28:23.988Z,5.65
2022-11-07T08:31:08.104Z,5.10
2022-11-07T08:33:35.346Z,5.75
2022-11-07T08:36:02.891Z,5.68
2022-11-07T08:38:30.618Z,5.55
2022-11-07T08:40:57.946Z,5.47
2022-11-07T08:43:25.016Z,4.35
2022-11-07T08:45:53.007Z,4.47
2022-11-07T08:48:19.986Z,4.63
2022-11-07T08:50:46.933Z,5.28
2022-11-07T08:53:14.002Z,4.43
2022-11-07T08:55:40.954Z,4.00
2022-11-07T08:58:08.488Z,4.85
2022-11-07T09:00:35.862Z,3.50
2022-11-07T09:05:51.341Z,4.60
2022-11-07T09:08:18.550Z,5.15
2022-11-07T09:10:45.729Z,3.83
2022-11-07T09:13:14.940Z,6.60
2022-11-07T09:15:47.705Z,4.30
2022-11-07T09:18:17.472Z,6.40
2022-11-07T09:20:44.383Z,4.88
2022-11-07T09:23:11.332Z,6.30
2022-11-07T09:25:38.322Z,5.13
2022-11-07T09:28:05.522Z,4.65
2022-11-07T09:30:32.570Z,4.40
2022-11-07T09:32:59.719Z,4.60
2022-11-07T09:35:27.060Z,3.25
2022-11-07T09:37:54.079Z,3.00
2022-11-07T09:40:52.089Z,3.28
2022-11-07T09:43:41.133Z,4.13
2022-11-07T09:46:24.307Z,2.92
2022-11-07T09:48:54.606Z,3.05
2022-11-07T09:51:32.790Z,3.15
2022-11-07T09:54:01.482Z,3.00
2022-11-07T09:56:28.867Z,3.08
2022-11-07T09:59:00.381Z,3.35
2022-11-07T10:01:28.544Z,2.80
2022-11-07T10:04:23.417Z,3.03
2022-11-07T10:06:52.502Z,3.13
2022-11-07T10:09:25.375Z,3.63
2022-11-07T10:12:02.650Z,3.20
2022-11-07T10:14:41.641Z,3.40
2022-11-07T10:17:20.546Z,3.50
2022-11-07T10:20:08.111Z,3.30
2022-11-07T10:22:49.971Z,3.20
2022-11-07T10:25:39.989Z,3.35
2022-11-07T10:28:07.989Z,3.92
2022-11-07T10:30:35.083Z,3.92
2022-11-07T10:33:10.879Z,3.53
2022-11-07T10:35:39.417Z,4.10
2022-11-07T10:38:17.286Z,3.80
2022-11-07T10:40:44.282Z,3.92
2022-11-07T10:43:20.369Z,3.92
2022-11-07T10:45:47.342Z,3.80
2022-11-07T10:48:14.639Z,3.95
2022-11-07T10:50:51.372Z,4.25
2022-11-07T10:53:21.745Z,4.00
2022-11-07T10:55:49.991Z,4.45
2022-11-07T10:58:19.106Z,3.72
2022-11-07T11:01:05.907Z,3.80
2022-11-07T11:03:55.060Z,3.90
2022-11-07T11:06:33.395Z,3.55
2022-11-07T11:09:00.336Z,3.75
2022-11-07T11:11:32.220Z,4.10
2022-11-07T11:14:25.543Z,3.80
2022-11-07T11:16:55.977Z,3.63
2022-11-07T11:19:40.262Z,3.60
2022-11-07T11:22:17.677Z,3.72
2022-11-07T11:24:44.772Z,3.70
2022-11-07T11:27:17.519Z,3.38
2022-11-07T11:29:55.726Z,3.58
2022-11-07T11:32:30.858Z,4.38
2022-11-07T11:35:18.976Z,3.63
2022-11-07T11:37:52.123Z,3.75
2022-11-07T11:40:22.300Z,3.38
2022-11-07T11:43:03.701Z,3.70
2022-11-07T11:45:44.961Z,3.25
2022-11-07T11:48:46.875Z,3.33
2022-11-07T11:51:31.788Z,3.08
2022-11-07T11:54:01.068Z,2.90
2022-11-07T11:56:59.662Z,3.25
2022-11-07T11:59:46.721Z,3.30
2022-11-07T12:02:48.961Z,3.28
2022-11-07T12:05:48.412Z,3.35
2022-11-07T12:08:21.662Z,3.38
2022-11-07T12:10:54.161Z,3.40
2022-11-07T12:13:34.819Z,2.72
2022-11-07T12:16:39.969Z,3.78
2022-11-07T12:19:28.941Z,3.30
2022-11-07T12:22:14.574Z,3.60
2022-11-07T12:24:52.715Z,2.63
2022-11-07T12:27:37.194Z,2.92
2022-11-07T12:30:09.977Z,3.22
2022-11-07T12:33:09.581Z,3.72
2022-11-07T12:36:00.454Z,3.03
2022-11-07T12:38:36.803Z,3.30
2022-11-07T12:41:30.653Z,3.95
2022-11-07T12:44:33.561Z,3.60
2022-11-07T12:47:04.722Z,3.42
2022-11-07T12:50:00.854Z,3.20
2022-11-07T12:53:05.596Z,3.10
2022-11-07T12:55:57.536Z,3.63
2022-11-07T12:58:25.741Z,4.05
2022-11-07T13:00:56.048Z,3.80
2022-11-07T13:03:44.668Z,3.97
2022-11-07T13:06:15.134Z,3.95
2022-11-07T13:09:05.043Z,4.32
2022-11-07T13:12:09.687Z,3.80
2022-11-07T13:14:41.710Z,4.25
2022-11-07T13:17:15.128Z,3.90
2022-11-07T13:19:46.263Z,4.03
2022-11-07T13:22:16.429Z,3.55
2022-11-07T13:25:26.990Z,4.03
2022-11-07T13:27:57.103Z,2.90
2022-11-07T13:30:30.419Z,3.45
2022-11-07T13:33:04.321Z,3.33
2022-11-07T13:35:42.986Z,3.78
2022-11-07T13:38:16.890Z,3.53
2022-11-07T13:40:52.520Z,3.20
2022-11-07T13:43:20.920Z,3.70
2022-11-07T13:45:56.534Z,3.63
2022-11-07T13:48:26.889Z,3.80
2022-11-07T13:50:57.369Z,3.28
2022-11-07T13:53:33.422Z,3.10
2022-11-07T13:56:11.740Z,3.88
2022-11-07T13:58:38.837Z,3.80
2022-11-07T14:01:10.298Z,4.38
2022-11-07T14:03:37.694Z,4.15
2022-11-07T14:06:04.997Z,4.07
2022-11-07T14:08:37.478Z,3.88
2022-11-07T14:11:04.990Z,4.05
2022-11-07T14:13:41.017Z,3.92
2022-11-07T14:16:21.743Z,3.88
2022-11-07T14:18:55.142Z,3.90
2022-11-07T14:21:25.334Z,4.17
2022-11-07T14:23:55.438Z,5.95
2022-11-07T14:26:32.876Z,4.40
2022-11-07T14:29:00.975Z,4.60
2022-11-07T14:31:35.248Z,4.75
2022-11-07T14:34:15.710Z,4.53
2022-11-07T14:36:50.168Z,4.72
2022-11-07T14:39:18.002Z,4.68
2022-11-07T14:41:45.108Z,4.07
2022-11-07T14:44:17.752Z,5.13
2022-11-07T14:46:44.967Z,5.00
2022-11-07T14:49:29.084Z,4.13
2022-11-07T14:51:56.343Z,4.00
2022-11-07T14:54:24.818Z,4.15
2022-11-07T14:56:54.627Z,4.65
2022-11-07T14:59:23.011Z,4.43
2022-11-07T15:02:13.699Z,4.57
2022-11-07T15:04:45.561Z,4.75
2022-11-07T15:07:20.376Z,4.43
2022-11-07T15:09:47.451Z,4.20
2022-11-07T15:12:22.389Z,5.50
2022-11-07T15:15:06.890Z,4.95
2022-11-07T15:17:40.013Z,4.38
2022-11-07T15:20:07.751Z,3.87
2022-11-07T15:22:38.425Z,4.55
2022-11-07T15:25:28.306Z,4.22
2022-11-07T15:27:55.430Z,4.30
2022-11-07T15:30:33.294Z,4.13
2022-11-07T15:33:00.319Z,4.10
2022-11-07T15:35:43.633Z,3.97
2022-11-07T15:38:22.231Z,4.25
2022-11-07T15:40:49.348Z,4.53
2022-11-07T15:43:17.215Z,4.55
2022-11-07T15:45:44.264Z,3.95
2022-11-07T15:48:19.191Z,3.85
2022-11-07T15:50:46.985Z,3.78
2022-11-07T15:53:23.807Z,4.28
2022-11-07T15:55:52.887Z,3.95
2022-11-07T15:58:24.402Z,4.90
2022-11-07T16:00:52.142Z,4.95
2022-11-07T16:03:21.048Z,4.57
2022-11-07T16:05:48.945Z,5.60
2022-11-07T16:08:23.968Z,4.78
2022-11-07T16:10:58.707Z,4.68
2022-11-07T16:13:25.726Z,4.80
2022-11-07T16:15:58.186Z,4.63
2022-11-07T16:18:27.630Z,5.15
2022-11-07T16:20:54.609Z,5.50
2022-11-07T16:23:21.717Z,6.90
2022-11-07T16:25:51.900Z,7.90
2022-11-07T16:28:26.720Z,7.55
2022-11-07T16:30:54.048Z,8.20
2022-11-07T16:33:21.003Z,7.32
2022-11-07T16:35:48.985Z,8.40
2022-11-07T16:38:17.462Z,8.02
2022-11-07T16:40:44.819Z,7.90
2022-11-07T16:43:14.785Z,8.07
2022-11-07T16:45:53.387Z,8.20
2022-11-07T16:48:36.648Z,9.35
2022-11-07T16:51:03.727Z,10.15
2022-11-07T16:53:34.055Z,9.88
2022-11-07T16:56:05.670Z,9.40
2022-11-07T16:58:33.761Z,10.77
2022-11-07T17:01:06.538Z,12.60
2022-11-07T17:03:36.747Z,12.75
2022-11-07T17:06:05.311Z,12.68
2022-11-07T17:08:41.521Z,12.57
2022-11-07T17:11:10.750Z,13.32
2022-11-07T17:13:37.782Z,13.45
2022-11-07T17:16:18.275Z,14.07
2022-11-07T17:18:50.947Z,14.85
2022-11-07T17:21:35.335Z,13.38
2022-11-07T17:24:03.369Z,13.50
2022-11-07T17:26:31.998Z,14.45
2022-11-07T17:29:01.186Z,14.27
2022-11-07T17:31:34.187Z,14.85
2022-11-07T17:34:01.169Z,15.60
2022-11-07T17:36:36.996Z,16.45
2022-11-07T17:39:14.120Z,16.13
2022-11-07T17:41:41.189Z,17.85
2022-11-07T17:44:08.763Z,17.00
2022-11-07T17:46:36.495Z,18.05
2022-11-07T17:49:06.814Z,18.15
2022-11-07T17:51:35.837Z,22.38
2022-11-07T17:54:03.040Z,26.38
2022-11-07T17:56:30.865Z,24.27
2022-11-07T17:59:03.217Z,23.73
2022-11-07T18:01:31.992Z,20.42
2022-11-07T18:03:59.163Z,20.20
2022-11-07T18:06:26.955Z,19.13
2022-11-07T18:08:58.486Z,24.15
2022-11-07T18:11:27.195Z,23.63
2022-11-07T18:13:54.993Z,22.60
2022-11-07T18:16:23.998Z,22.60
2022-11-07T18:18:51.015Z,22.08
2022-11-07T18:21:18.136Z,24.70
2022-11-07T18:23:45.872Z,26.77
2022-11-07T18:26:20.534Z,27.88
2022-11-07T18:28:49.400Z,26.63
2022-11-07T18:31:17.637Z,27.23
2022-11-07T18:33:44.701Z,27.27
2022-11-07T18:36:13.341Z,26.52
2022-11-07T18:38:40.428Z,21.75
2022-11-07T18:41:08.988Z,22.30
2022-11-07T18:43:36.507Z,28.63
2022-11-07T18:46:05.328Z,35.05
2022-11-07T18:48:32.583Z,33.65
2022-11-07T18:51:00.614Z,28.48
2022-11-07T18:53:30.722Z,25.38
2022-11-07T18:55:58.591Z,16.92
2022-11-07T18:58:27.235Z,14.77
2022-11-07T19:00:55.139Z,12.43
2022-11-07T19:03:22.496Z,13.73
2022-11-07T19:05:50.166Z,14.15
2022-11-07T19:08:17.710Z,14.02
2022-11-07T19:10:44.846Z,17.55
2022-11-07T19:13:11.823Z,16.10
2022-11-07T19:15:39.500Z,14.90
2022-11-07T19:18:06.517Z,12.77
2022-11-07T19:20:33.499Z,11.55
2022-11-07T19:23:00.573Z,12.23
2022-11-07T19:25:27.589Z,11.65
2022-11-07T19:27:54.551Z,12.18
2022-11-07T19:30:21.477Z,11.23
2022-11-07T19:32:48.513Z,10.80
2022-11-07T19:35:17.414Z,10.02
2022-11-07T19:37:44.440Z,10.27
2022-11-07T19:40:12.734Z,9.82
2022-11-07T19:42:39.776Z,9.55
2022-11-07T19:45:07.109Z,8.80
2022-11-07T19:47:35.091Z,8.05
2022-11-07T19:50:02.056Z,8.82
2022-11-07T19:52:29.040Z,9.20
2022-11-07T19:54:56.064Z,9.07
2022-11-07T19:57:23.049Z,8.55
2022-11-07T19:59:50.058Z,8.75
2022-11-07T20:02:35.376Z,9.25
2022-11-07T20:05:03.679Z,9.30
2022-11-07T20:07:30.690Z,8.80
2022-11-07T20:09:58.847Z,9.02
2022-11-07T20:12:25.863Z,9.73
2022-11-07T20:14:52.949Z,9.05
2022-11-07T20:17:19.855Z,9.93
2022-11-07T20:19:47.071Z,8.77
2022-11-07T20:22:14.068Z,9.18
2022-11-07T20:24:40.973Z,8.48
2022-11-07T20:27:07.943Z,8.07
2022-11-07T20:29:34.899Z,9.20
2022-11-07T20:32:01.908Z,9.40
2022-11-07T20:34:28.894Z,9.43
2022-11-07T20:37:44.181Z,9.15
2022-11-07T20:40:14.586Z,9.45
2022-11-07T20:45:44.974Z,9.55
2022-11-07T20:48:48.107Z,8.63
2022-11-07T20:51:27.259Z,8.52
2022-11-07T20:54:06.613Z,9.57
2022-11-07T20:56:41.460Z,8.75
2022-11-07T21:05:17.986Z,8.90
2022-11-07T21:08:01.756Z,9.65
2022-11-07T21:10:50.243Z,9.20
2022-11-07T21:13:38.115Z,9.18
2022-11-07T21:16:09.238Z,8.70
2022-11-07T21:18:39.459Z,9.07
2022-11-07T21:21:20.056Z,8.73
2022-11-07T21:23:53.620Z,8.23
2022-11-07T21:26:22.672Z,9.43
2022-11-07T21:29:26.618Z,9.60
2022-11-07T21:31:59.905Z,10.57
2022-11-07T21:37:22.082Z,9.77
2022-11-07T21:39:52.666Z,9.77
2022-11-07T21:42:19.785Z,9.55
2022-11-07T21:44:47.017Z,9.57
2022-11-07T21:47:14.229Z,9.35
2022-11-07T21:49:44.299Z,11.45
2022-11-07T21:52:20.830Z,11.07
2022-11-07T21:54:58.767Z,11.98
2022-11-07T21:57:42.719Z,13.00
2022-11-07T22:00:14.974Z,12.65
2022-11-07T22:03:04.284Z,11.00
2022-11-07T22:06:14.006Z,10.13
2022-11-07T22:08:41.596Z,9.98
2022-11-07T22:11:09.317Z,9.77
2022-11-07T22:14:28.066Z,10.52
2022-11-07T22:17:01.560Z,9.20
2022-11-07T22:19:54.571Z,9.40
2022-11-07T22:22:21.627Z,8.95
2022-11-07T22:24:48.608Z,9.90
2022-11-07T22:27:15.646Z,10.25
2022-11-07T22:29:51.595Z,8.80
2022-11-07T22:32:51.034Z,10.07
2022-11-07T22:35:20.439Z,9.07
2022-11-07T22:37:47.587Z,9.15
2022-11-07T22:40:25.638Z,9.90
2022-11-07T22:42:56.696Z,10.45
2022-11-07T22:45:38.241Z,9.40
2022-11-07T22:48:06.695Z,8.55
2022-11-07T22:51:07.925Z,9.68
2022-11-07T22:53:35.159Z,8.95
2022-11-07T22:59:38.217Z,8.82
2022-11-07T23:04:38.506Z,8.93
2022-11-07T23:07:06.596Z,8.25
2022-11-07T23:10:05.097Z,8.63
2022-11-07T23:12:34.950Z,8.80
2022-11-07T23:15:01.935Z,8.50
2022-11-07T23:17:31.279Z,9.90
2022-11-07T23:20:01.509Z,8.85
2022-11-07T23:22:32.159Z,9.77
2022-11-07T23:24:59.744Z,9.77
2022-11-07T23:27:42.331Z,10.23
2022-11-07T23:30:09.552Z,8.65
2022-11-07T23:32:36.741Z,9.63
2022-11-07T23:35:03.845Z,9.80
2022-11-07T23:37:30.818Z,9.20
2022-11-07T23:39:57.749Z,9.35
2022-11-07T23:42:24.775Z,8.52
2022-11-07T23:45:10.192Z,9.00
2022-11-07T23:47:55.581Z,9.30
2022-11-07T23:50:40.937Z,9.27
2022-11-07T23:53:27.900Z,8.93
2022-11-07T23:55:54.806Z,9.82
2022-11-07T23:58:40.253Z,9.32
